Time;durP1;ratioP1;P1;durP2;ratioP2;P2;SDS_P1;SDS_P2;PMS_P1;PMS_P2;Temp;Humidity;BMP_temperature;BMP_pressure;BME280_temperature;BME280_humidity;BME280_pressure;Samples;Min_cycle;Max_cycle;Signal;HPM_P1;HPM_P2
2024/03/12 00:01:44;;;;;;;5.50;4.38;;;7.20;97.20;;;;;;5049066;28;20571;-93
2024/03/12 00:04:10;;;;;;;6.55;4.78;;;7.20;97.50;;;;;;5040978;28;20041;-91
2024/03/12 00:06:37;;;;;;;8.70;4.90;;;7.20;96.80;;;;;;5040636;28;20036;-92
2024/03/12 00:09:06;;;;;;;8.15;4.82;;;7.30;96.70;;;;;;5047663;28;20033;-89
2024/03/12 00:11:33;;;;;;;8.98;4.78;;;7.30;96.90;;;;;;5052594;28;20029;-91
2024/03/12 00:13:58;;;;;;;5.85;4.22;;;7.30;97.20;;;;;;5046269;28;20030;-91
2024/03/12 00:16:24;;;;;;;5.85;4.15;;;7.30;97.20;;;;;;5038859;28;20041;-91
2024/03/12 00:18:54;;;;;;;5.45;4.95;;;7.30;97.10;;;;;;5039206;28;20083;-91
2024/03/12 00:21:20;;;;;;;6.20;4.68;;;7.30;97.10;;;;;;5048183;28;20021;-91
2024/03/12 00:23:47;;;;;;;7.88;4.50;;;7.30;96.80;;;;;;5041424;28;20036;-92
2024/03/12 00:26:17;;;;;;;5.85;3.97;;;7.40;96.70;;;;;;5043555;28;20056;-92
2024/03/12 00:28:43;;;;;;;8.43;5.40;;;7.40;96.50;;;;;;5054898;28;20025;-91
2024/03/12 00:31:09;;;;;;;6.65;5.18;;;7.40;96.30;;;;;;5044565;28;20031;-95
2024/03/12 00:33:35;;;;;;;5.65;4.05;;;7.30;96.00;;;;;;5039201;28;20032;-91
2024/03/12 00:36:01;;;;;;;5.75;5.10;;;7.30;96.30;;;;;;5038644;28;20025;-92
2024/03/12 00:38:28;;;;;;;5.97;3.88;;;7.30;96.30;;;;;;5038189;28;20520;-91
2024/03/12 00:40:55;;;;;;;5.82;3.90;;;7.40;96.30;;;;;;5046319;28;20013;-90
2024/03/12 00:43:21;;;;;;;6.82;4.78;;;7.30;96.60;;;;;;5038891;28;20089;-92
2024/03/12 00:45:48;;;;;;;4.75;4.05;;;7.20;96.80;;;;;;5050217;28;20609;-91
2024/03/12 00:48:14;;;;;;;5.03;4.25;;;7.20;96.90;;;;;;5050247;28;20036;-91
2024/03/12 00:50:40;;;;;;;4.75;3.92;;;7.20;97.00;;;;;;5057301;28;20092;-90
2024/03/12 00:53:07;;;;;;;4.65;4.25;;;7.30;96.60;;;;;;5053345;28;20025;-92
2024/03/12 00:55:35;;;;;;;8.32;4.03;;;7.20;96.70;;;;;;5057378;28;20040;-92
2024/03/12 00:58:00;;;;;;;4.93;4.07;;;7.20;96.90;;;;;;5053972;28;20025;-90
2024/03/12 01:00:33;;;;;;;8.15;4.57;;;7.10;96.90;;;;;;5053658;28;20071;-91
2024/03/12 01:02:59;;;;;;;5.50;3.70;;;7.10;97.30;;;;;;5041837;28;20020;-92
2024/03/12 01:05:30;;;;;;;5.85;3.88;;;7.10;97.50;;;;;;5049032;28;20029;-92
2024/03/12 01:08:00;;;;;;;5.72;3.83;;;7.10;97.70;;;;;;5049628;28;20036;-91
2024/03/12 01:10:30;;;;;;;6.25;3.85;;;7.20;97.60;;;;;;5058157;28;20028;-92
2024/03/12 01:12:58;;;;;;;6.47;4.40;;;7.20;97.30;;;;;;5057939;28;20021;-91
2024/03/12 01:15:24;;;;;;;4.80;4.10;;;7.20;97.40;;;;;;5042670;28;20029;-91
2024/03/12 01:17:51;;;;;;;8.82;4.72;;;7.20;97.20;;;;;;5049541;28;20499;-91
2024/03/12 01:20:19;;;;;;;6.10;4.30;;;7.20;97.30;;;;;;5041836;28;20052;-91
2024/03/12 01:22:45;;;;;;;7.55;4.25;;;7.10;97.60;;;;;;5049012;28;20028;-92
2024/03/12 01:25:11;;;;;;;7.20;4.10;;;7.20;97.70;;;;;;5056446;28;20053;-91
2024/03/12 01:27:38;;;;;;;5.03;4.35;;;7.10;97.90;;;;;;5057419;28;20021;-93
2024/03/12 01:30:13;;;;;;;5.78;4.38;;;7.10;98.00;;;;;;5051662;28;20033;-90
2024/03/12 01:32:46;;;;;;;5.50;4.15;;;7.10;98.00;;;;;;5056451;28;20032;-90
2024/03/12 01:35:12;;;;;;;4.90;4.22;;;7.10;98.30;;;;;;5049456;28;20021;-91
2024/03/12 01:37:43;;;;;;;7.63;4.70;;;7.10;98.40;;;;;;5044220;28;20024;-91
2024/03/12 01:40:30;;;;;;;8.10;4.20;;;7.10;98.50;;;;;;5039164;28;20466;-91
2024/03/12 01:43:09;;;;;;;8.02;4.78;;;7.10;98.60;;;;;;5042465;28;20028;-91
2024/03/12 01:45:35;;;;;;;6.80;5.55;;;7.10;98.70;;;;;;5049777;28;20080;-90
2024/03/12 01:48:07;;;;;;;9.73;5.10;;;7.00;98.80;;;;;;5044204;28;20033;-92
2024/03/12 01:50:34;;;;;;;6.00;4.40;;;7.00;99.00;;;;;;5037008;28;20029;-89
2024/03/12 01:53:00;;;;;;;;;;;7.00;99.30;;;;;;5037379;28;20507;-91
2024/03/12 01:55:26;;;;;;;6.68;5.07;;;7.00;99.40;;;;;;5046631;28;19905;-92
2024/03/12 01:57:53;;;;;;;6.70;4.97;;;7.00;99.60;;;;;;5041409;28;20032;-91
2024/03/12 02:00:19;;;;;;;6.90;4.47;;;7.00;99.50;;;;;;5049702;28;20028;-91
2024/03/12 02:02:47;;;;;;;6.38;4.28;;;7.00;99.40;;;;;;5056422;28;20504;-91
2024/03/12 02:05:13;;;;;;;6.00;4.63;;;7.00;99.40;;;;;;5057388;28;20082;-91
2024/03/12 02:07:45;;;;;;;5.97;4.80;;;7.00;99.40;;;;;;5066930;28;20021;-92
2024/03/12 02:10:12;;;;;;;7.40;4.53;;;7.00;99.20;;;;;;5043260;28;20137;-91
2024/03/12 02:12:37;;;;;;;7.55;4.57;;;7.10;99.10;;;;;;5059379;28;20067;-93
2024/03/12 02:15:04;;;;;;;5.80;4.80;;;7.10;99.20;;;;;;5059052;28;20033;-91
2024/03/12 02:17:30;;;;;;;6.07;5.20;;;7.10;99.40;;;;;;5060660;28;20025;-92
2024/03/12 02:19:57;;;;;;;7.18;4.75;;;7.10;99.70;;;;;;5065231;28;20022;-95
2024/03/12 02:22:23;;;;;;;6.63;5.50;;;7.10;99.50;;;;;;5060400;28;20025;-91
2024/03/12 02:24:50;;;;;;;7.32;5.28;;;7.20;99.70;;;;;;5057876;28;20035;-91
2024/03/12 02:27:16;;;;;;;5.90;4.47;;;7.20;99.90;;;;;;5047723;28;20026;-92
2024/03/12 02:29:44;;;;;;;7.25;4.93;;;7.20;99.80;;;;;;5039469;28;20071;-90
2024/03/12 02:32:10;;;;;;;5.53;5.03;;;7.20;99.70;;;;;;5044396;28;20392;-91
2024/03/12 02:34:36;;;;;;;5.28;4.15;;;7.20;99.50;;;;;;5048653;28;20499;-90
2024/03/12 02:37:02;;;;;;;5.72;4.75;;;7.20;99.40;;;;;;5038639;28;20028;-91
2024/03/12 02:39:28;;;;;;;5.43;4.78;;;7.30;99.80;;;;;;5038294;28;20025;-92
2024/03/12 02:41:53;;;;;;;8.07;5.28;;;7.30;99.40;;;;;;5045566;28;20024;-91
2024/03/12 02:44:21;;;;;;;8.45;6.20;;;7.30;99.70;;;;;;5046442;28;20419;-92
2024/03/12 02:46:50;;;;;;;7.68;5.32;;;7.30;99.10;;;;;;5044227;28;20208;-93
2024/03/12 02:49:17;;;;;;;7.45;5.22;;;7.40;99.30;;;;;;5043500;28;20018;-91
2024/03/12 02:51:45;;;;;;;8.75;4.55;;;7.40;99.20;;;;;;5040455;28;20022;-92
2024/03/12 02:54:14;;;;;;;8.32;4.82;;;7.40;98.70;;;;;;5046567;28;20025;-92
2024/03/12 02:56:40;;;;;;;11.02;5.25;;;7.50;98.10;;;;;;5053053;28;20057;-92
2024/03/12 02:59:08;;;;;;;8.40;4.40;;;7.50;98.30;;;;;;5046098;28;20555;-91
2024/03/12 03:01:35;;;;;;;6.50;4.57;;;7.50;98.20;;;;;;5043655;28;20022;-93
2024/03/12 03:04:01;;;;;;;6.25;4.97;;;7.50;97.80;;;;;;5061278;28;20098;-91
2024/03/12 03:06:27;;;;;;;5.45;4.57;;;7.50;98.10;;;;;;5048133;28;20025;-93
2024/03/12 03:08:53;;;;;;;6.38;5.07;;;7.50;98.10;;;;;;5059292;28;20091;-91
2024/03/12 03:11:19;;;;;;;8.02;4.70;;;7.50;98.50;;;;;;5062067;28;20040;-91
2024/03/12 03:13:44;;;;;;;7.95;5.05;;;7.50;98.40;;;;;;5043703;28;20360;-91
2024/03/12 03:16:10;;;;;;;5.70;5.00;;;7.50;98.60;;;;;;5060952;28;20451;-92
2024/03/12 03:18:37;;;;;;;7.38;5.15;;;7.50;98.60;;;;;;5043219;28;20025;-92
2024/03/12 03:21:03;;;;;;;6.65;5.20;;;7.60;98.30;;;;;;5052181;28;20029;-91
2024/03/12 03:23:28;;;;;;;5.68;4.68;;;7.60;97.90;;;;;;5057955;28;20120;-92
2024/03/12 03:25:54;;;;;;;8.13;5.43;;;7.60;98.10;;;;;;5047582;28;20059;-93
2024/03/12 03:28:19;;;;;;;8.15;5.28;;;7.60;97.90;;;;;;5048237;28;20030;-92
2024/03/12 03:30:45;;;;;;;6.00;4.57;;;7.60;98.00;;;;;;5059405;28;20025;-91
2024/03/12 03:33:11;;;;;;;5.20;4.40;;;7.60;98.20;;;;;;5052155;28;20109;-89
2024/03/12 03:35:37;;;;;;;6.90;5.18;;;7.50;97.80;;;;;;5039945;28;20033;-92
2024/03/12 03:38:05;;;;;;;7.15;4.57;;;7.60;98.10;;;;;;5037523;28;20029;-92
2024/03/12 03:40:32;;;;;;;6.32;4.35;;;7.60;98.30;;;;;;5048350;28;20107;-92
2024/03/12 03:42:57;;;;;;;7.15;4.28;;;7.60;98.40;;;;;;5045254;28;20067;-91
2024/03/12 03:45:24;;;;;;;6.43;4.65;;;7.60;98.10;;;;;;5048299;28;20034;-91
2024/03/12 03:47:50;;;;;;;7.95;5.85;;;7.50;98.40;;;;;;5054570;28;20108;-89
2024/03/12 03:50:16;;;;;;;7.47;4.88;;;7.50;98.70;;;;;;5047220;28;20025;-90
2024/03/12 03:52:43;;;;;;;8.45;5.68;;;7.50;99.90;;;;;;5050405;28;20028;-91
2024/03/12 03:55:09;;;;;;;5.78;4.82;;;7.50;99.70;;;;;;5050433;28;20021;-92
2024/03/12 03:57:35;;;;;;;6.40;4.43;;;7.40;99.50;;;;;;5048779;28;20519;-91
2024/03/12 04:00:12;;;;;;;8.25;4.90;;;7.40;99.50;;;;;;5046713;28;20441;-90
2024/03/12 04:02:39;;;;;;;7.70;5.38;;;7.40;99.80;;;;;;5046770;28;20025;-91
2024/03/12 04:05:06;;;;;;;6.80;5.18;;;7.30;99.90;;;;;;5052500;28;20021;-93
2024/03/12 04:07:32;;;;;;;7.82;5.55;;;7.40;99.90;;;;;;5050444;28;20021;-91
2024/03/12 04:09:57;;;;;;;7.10;5.05;;;7.40;99.90;;;;;;5053551;28;20033;-90
2024/03/12 04:12:24;;;;;;;7.63;5.05;;;7.30;99.90;;;;;;5054524;28;20027;-92
2024/03/12 04:14:50;;;;;;;7.85;5.28;;;7.40;99.90;;;;;;5053740;28;20029;-91
2024/03/12 04:17:19;;;;;;;6.60;4.63;;;7.30;99.90;;;;;;5058459;28;20021;-92
2024/03/12 04:19:47;;;;;;;7.25;5.10;;;7.30;99.90;;;;;;5046581;28;20021;-93
2024/03/12 04:22:13;;;;;;;9.07;5.00;;;7.30;99.90;;;;;;5044432;28;20045;-91
2024/03/12 04:24:39;;;;;;;8.60;5.70;;;7.30;99.90;;;;;;5041723;28;20022;-93
2024/03/12 04:27:05;;;;;;;7.53;5.00;;;7.30;99.90;;;;;;5050497;28;20024;-91
2024/03/12 04:29:31;;;;;;;9.80;5.63;;;7.30;99.90;;;;;;5040906;28;20025;-92
2024/03/12 04:31:56;;;;;;;7.95;6.10;;;7.20;99.90;;;;;;5058592;28;20060;-93
2024/03/12 04:34:22;;;;;;;8.52;6.18;;;7.20;99.90;;;;;;5057785;28;20029;-91
2024/03/12 04:36:47;;;;;;;8.57;5.22;;;7.20;99.90;;;;;;5046161;28;20026;-92
2024/03/12 04:39:31;;;;;;;6.88;5.15;;;7.10;99.90;;;;;;5046093;28;20033;-90
2024/03/12 04:42:09;;;;;;;8.30;5.68;;;7.10;99.90;;;;;;5042895;28;20114;-92
2024/03/12 04:44:34;;;;;;;7.82;5.05;;;7.10;99.90;;;;;;5056120;28;20033;-92
2024/03/12 04:47:00;;;;;;;8.00;5.53;;;7.10;99.90;;;;;;5039370;28;20106;-90
2024/03/12 04:49:27;;;;;;;9.20;6.13;;;7.10;99.90;;;;;;5044526;28;20017;-91
2024/03/12 04:51:53;;;;;;;8.88;5.57;;;7.10;99.90;;;;;;5046457;28;20013;-91
2024/03/12 04:54:19;;;;;;;7.40;5.18;;;7.10;99.90;;;;;;5045821;28;20025;-91
2024/03/12 04:56:46;;;;;;;7.60;5.57;;;7.20;99.90;;;;;;5049470;28;20029;-90
2024/03/12 04:59:14;;;;;;;10.35;6.70;;;7.20;99.90;;;;;;5054584;28;20017;-91
2024/03/12 05:01:48;;;;;;;9.40;5.80;;;7.20;99.90;;;;;;5035786;28;20026;-92
2024/03/12 05:04:16;;;;;;;10.25;5.57;;;7.20;99.90;;;;;;5047825;28;20037;-91
2024/03/12 05:06:42;;;;;;;10.00;5.78;;;7.20;99.90;;;;;;5044574;28;20014;-93
2024/03/12 05:09:09;;;;;;;7.68;5.25;;;7.20;99.90;;;;;;5046424;28;20030;-91
2024/03/12 05:11:35;;;;;;;10.65;7.13;;;7.20;99.90;;;;;;5042642;28;20041;-90
2024/03/12 05:14:01;;;;;;;9.05;5.90;;;7.20;99.90;;;;;;5037606;28;20550;-91
2024/03/12 05:16:27;;;;;;;7.00;5.22;;;7.20;99.90;;;;;;5039229;28;20134;-91
2024/03/12 05:18:53;;;;;;;8.40;5.60;;;7.20;99.90;;;;;;5043435;28;20028;-88
2024/03/12 05:21:19;;;;;;;9.18;4.90;;;7.10;99.90;;;;;;5050628;28;20021;-91
2024/03/12 05:23:45;;;;;;;8.27;5.50;;;7.10;99.90;;;;;;5049457;28;20079;-90
2024/03/12 05:26:11;;;;;;;6.70;5.15;;;7.10;99.90;;;;;;5047878;28;20037;-91
2024/03/12 05:28:37;;;;;;;8.02;5.68;;;7.10;99.90;;;;;;5046115;28;20033;-91
2024/03/12 05:31:03;;;;;;;9.95;5.55;;;7.10;99.90;;;;;;5038535;28;20029;-90
2024/03/12 05:33:30;;;;;;;11.82;5.80;;;7.00;99.90;;;;;;5044255;28;20035;-91
2024/03/12 05:35:56;;;;;;;10.40;5.20;;;7.10;99.90;;;;;;5051646;28;20040;-90
2024/03/12 05:41:04;;;;;;;8.82;5.53;;;7.00;99.90;;;;;;5036373;28;20021;-91
2024/03/12 05:48:58;;;;;;;9.18;5.38;;;7.00;99.90;;;;;;5037404;28;20032;-91
2024/03/12 05:51:23;;;;;;;7.15;5.50;;;7.00;99.90;;;;;;5052352;28;20426;-90
2024/03/12 05:53:49;;;;;;;9.77;5.60;;;7.10;99.90;;;;;;5037113;28;20029;-95
2024/03/12 05:56:15;;;;;;;8.93;5.53;;;7.10;99.90;;;;;;5044401;28;20022;-91
2024/03/12 05:58:41;;;;;;;9.32;4.57;;;7.20;99.90;;;;;;5052166;28;20041;-91
2024/03/12 06:01:07;;;;;;;7.63;4.68;;;7.20;99.90;;;;;;5058741;28;20102;-91
2024/03/12 06:03:35;;;;;;;10.10;5.25;;;7.10;99.90;;;;;;5050868;28;20092;-89
2024/03/12 06:06:04;;;;;;;6.25;4.47;;;7.20;99.90;;;;;;5050655;28;20031;-89
2024/03/12 06:08:30;;;;;;;8.63;4.93;;;7.20;99.90;;;;;;5040793;28;20029;-91
2024/03/12 06:10:56;;;;;;;8.25;5.22;;;7.20;99.90;;;;;;5043943;28;20025;-90
2024/03/12 06:13:22;;;;;;;8.50;5.90;;;7.20;99.90;;;;;;5044347;28;20025;-89
2024/03/12 06:15:49;;;;;;;11.02;6.10;;;7.20;99.90;;;;;;5047165;28;20013;-88
2024/03/12 06:18:18;;;;;;;8.75;5.43;;;7.30;99.90;;;;;;5044075;28;20024;-89
2024/03/12 06:20:46;;;;;;;6.95;5.18;;;7.20;99.90;;;;;;5046258;28;20026;-90
2024/03/12 06:23:13;;;;;;;8.00;5.35;;;7.20;99.90;;;;;;5046672;28;20103;-91
2024/03/12 06:25:39;;;;;;;7.95;4.93;;;7.20;99.90;;;;;;5059979;28;20048;-91
2024/03/12 06:28:05;;;;;;;9.20;5.72;;;7.20;99.90;;;;;;5049997;28;20525;-90
2024/03/12 06:30:35;;;;;;;6.22;4.80;;;7.20;99.90;;;;;;5044994;28;20033;-91
2024/03/12 06:33:01;;;;;;;11.30;5.78;;;7.20;99.90;;;;;;5056899;28;20037;-92
2024/03/12 06:35:28;;;;;;;8.55;5.05;;;7.20;99.90;;;;;;5058593;28;20025;-92
2024/03/12 06:37:54;;;;;;;7.25;5.03;;;7.30;99.90;;;;;;5036712;28;20040;-91
2024/03/12 06:40:20;;;;;;;11.85;5.90;;;7.30;99.90;;;;;;5026901;28;20029;-91
2024/03/12 06:42:46;;;;;;;9.50;4.70;;;7.30;99.90;;;;;;5032020;28;20025;-92
2024/03/12 06:45:12;;;;;;;9.65;5.80;;;7.30;99.90;;;;;;5034410;28;20022;-89
2024/03/12 06:47:41;;;;;;;10.02;5.65;;;7.30;99.90;;;;;;5030634;28;20026;-90
2024/03/12 06:50:10;;;;;;;8.95;5.47;;;7.30;99.90;;;;;;5030821;28;20029;-94
2024/03/12 06:52:36;;;;;;;7.90;6.30;;;7.30;99.90;;;;;;5038288;28;20071;-90
2024/03/12 06:55:12;;;;;;;7.93;5.68;;;7.40;99.90;;;;;;5032013;28;20029;-90
2024/03/12 06:57:47;;;;;;;10.48;5.60;;;7.40;99.90;;;;;;5030615;28;20148;-91
2024/03/12 07:00:22;;;;;;;12.05;5.60;;;7.30;99.90;;;;;;5033403;28;20111;-91
2024/03/12 07:02:49;;;;;;;10.07;5.03;;;7.40;99.90;;;;;;5029172;28;20136;-93
2024/03/12 07:05:15;;;;;;;11.55;5.05;;;7.30;99.90;;;;;;5032452;28;20120;-92
2024/03/12 07:07:46;;;;;;;9.05;5.00;;;7.40;99.90;;;;;;5059715;28;20872;-91
2024/03/12 07:10:12;;;;;;;7.65;4.88;;;7.40;99.90;;;;;;5028246;28;20048;-92
2024/03/12 07:12:39;;;;;;;6.20;4.25;;;7.40;99.90;;;;;;5028243;28;20033;-91
2024/03/12 07:15:06;;;;;;;10.10;6.13;;;7.40;99.90;;;;;;5030723;28;20039;-89
2024/03/12 07:17:33;;;;;;;10.80;5.50;;;7.40;99.90;;;;;;5031475;28;20017;-95
2024/03/12 07:19:58;;;;;;;8.55;4.43;;;7.40;99.90;;;;;;5024911;28;20021;-90
2024/03/12 07:22:25;;;;;;;8.55;5.18;;;7.40;99.90;;;;;;5022888;28;20022;-91
2024/03/12 07:24:55;;;;;;;8.48;5.18;;;7.40;99.90;;;;;;5027502;28;20025;-92
2024/03/12 07:27:22;;;;;;;7.85;4.38;;;7.40;99.90;;;;;;5026716;28;20623;-91
2024/03/12 07:29:48;;;;;;;10.63;5.57;;;7.40;99.90;;;;;;5026520;28;21345;-91
2024/03/12 07:32:14;;;;;;;9.10;5.85;;;7.50;99.90;;;;;;5023948;28;20187;-91
2024/03/12 07:34:40;;;;;;;9.95;5.18;;;7.50;99.90;;;;;;5025909;28;20010;-90
2024/03/12 07:37:06;;;;;;;8.90;4.28;;;7.50;99.90;;;;;;5024586;28;20424;-90
2024/03/12 07:39:34;;;;;;;9.00;4.05;;;7.60;99.90;;;;;;5026411;28;20771;-90
2024/03/12 07:42:13;;;;;;;5.35;3.67;;;7.60;99.90;;;;;;5023064;28;20017;-91
2024/03/12 07:44:38;;;;;;;6.75;4.43;;;7.70;99.90;;;;;;5025380;28;20571;-90
2024/03/12 07:47:04;;;;;;;6.53;4.78;;;7.70;99.90;;;;;;5023754;28;20121;-91
2024/03/12 07:49:32;;;;;;;6.05;4.15;;;7.70;99.90;;;;;;5026120;28;20089;-91
2024/03/12 07:51:59;;;;;;;;;;;7.80;99.90;;;;;;5022182;28;20017;-91
2024/03/12 07:54:26;;;;;;;;;;;7.70;99.90;;;;;;5023946;28;20023;-93
2024/03/12 07:56:52;;;;;;;8.02;4.45;;;7.80;99.90;;;;;;5025729;28;19988;-92
2024/03/12 07:59:21;;;;;;;5.88;3.67;;;7.80;99.90;;;;;;5025172;28;20088;-91
2024/03/12 08:01:52;;;;;;;6.75;4.30;;;7.80;99.90;;;;;;5020006;28;20029;-92
2024/03/12 08:04:19;;;;;;;8.82;5.20;;;7.80;99.90;;;;;;5026896;28;20061;-89
2024/03/12 08:06:45;;;;;;;8.45;5.18;;;7.80;99.90;;;;;;5026421;28;20034;-91
2024/03/12 08:09:10;;;;;;;6.85;4.15;;;7.80;99.90;;;;;;5021895;28;20021;-90
2024/03/12 08:11:36;;;;;;;8.07;4.57;;;7.80;99.90;;;;;;5020390;28;20065;-91
2024/03/12 08:14:03;;;;;;;6.93;4.95;;;7.80;99.90;;;;;;5024131;28;20026;-91
2024/03/12 08:16:30;;;;;;;6.65;4.15;;;7.80;99.90;;;;;;5021999;28;20021;-89
2024/03/12 08:18:58;;;;;;;7.43;4.28;;;7.80;99.90;;;;;;5023807;28;20025;-89
2024/03/12 08:21:25;;;;;;;7.20;3.88;;;7.80;99.90;;;;;;5021065;28;20013;-92
2024/03/12 08:23:51;;;;;;;7.63;4.18;;;7.90;99.90;;;;;;5021851;28;20041;-90
2024/03/12 08:26:16;;;;;;;11.48;6.30;;;7.90;99.90;;;;;;5023234;28;20040;-90
2024/03/12 08:28:45;;;;;;;10.20;5.03;;;8.00;99.90;;;;;;5023779;28;20416;-88
2024/03/12 08:31:11;;;;;;;9.10;5.45;;;8.00;99.90;;;;;;5019734;28;20045;-91
2024/03/12 08:33:41;;;;;;;7.93;5.20;;;8.10;99.90;;;;;;5024373;28;20021;-88
2024/03/12 08:36:07;;;;;;;7.97;4.68;;;8.20;99.90;;;;;;5024344;28;20025;-89
2024/03/12 08:38:34;;;;;;;9.68;5.32;;;8.30;99.90;;;;;;5020628;28;20051;-90
2024/03/12 08:41:00;;;;;;;8.90;4.97;;;8.20;99.90;;;;;;5018058;28;20839;-91
2024/03/12 08:43:26;;;;;;;9.48;4.63;;;8.30;99.90;;;;;;5023421;28;20296;-89
2024/03/12 08:45:51;;;;;;;10.15;5.85;;;8.40;99.90;;;;;;5023970;28;20025;-90
2024/03/12 08:48:17;;;;;;;7.60;4.47;;;8.50;99.90;;;;;;5020375;28;20037;-90
2024/03/12 08:50:43;;;;;;;10.88;6.38;;;8.40;99.90;;;;;;5021696;28;20070;-90
2024/03/12 08:53:11;;;;;;;10.07;5.32;;;8.50;99.90;;;;;;5022357;28;20037;-90
2024/03/12 08:55:37;;;;;;;10.43;5.30;;;8.60;99.90;;;;;;5019510;28;20035;-88
2024/03/12 08:58:04;;;;;;;10.15;5.40;;;8.70;99.90;;;;;;5020832;28;20110;-89
2024/03/12 09:00:32;;;;;;;10.48;6.07;;;8.80;99.90;;;;;;5020749;28;20010;-90
2024/03/12 09:02:59;;;;;;;10.93;5.70;;;8.80;99.90;;;;;;5019718;28;20040;-89
2024/03/12 09:05:25;;;;;;;8.38;5.90;;;8.80;99.90;;;;;;5022502;28;20034;-89
2024/03/12 09:07:50;;;;;;;11.05;6.63;;;8.80;99.90;;;;;;5021214;28;20033;-89
2024/03/12 09:10:16;;;;;;;12.23;6.68;;;8.80;99.90;;;;;;5017622;28;20355;-89
2024/03/12 09:12:42;;;;;;;12.77;5.90;;;8.80;99.90;;;;;;5022833;28;20033;-91
2024/03/12 09:15:09;;;;;;;10.63;5.63;;;8.60;99.90;;;;;;5023202;28;20022;-91
2024/03/12 09:17:38;;;;;;;11.73;6.30;;;8.70;99.90;;;;;;5019244;28;20496;-91
2024/03/12 09:20:10;;;;;;;12.13;6.05;;;8.70;99.90;;;;;;5020191;28;20353;-90
2024/03/12 09:22:37;;;;;;;11.90;6.43;;;8.70;99.90;;;;;;5021433;28;20021;-89
2024/03/12 09:25:04;;;;;;;13.68;6.65;;;8.60;99.90;;;;;;5021075;28;20065;-90
2024/03/12 09:27:30;;;;;;;;;;;8.60;99.90;;;;;;5019950;28;20085;-90
2024/03/12 09:29:56;;;;;;;12.15;5.68;;;8.60;99.90;;;;;;5023450;28;19935;-88
2024/03/12 09:32:24;;;;;;;16.13;7.22;;;8.50;99.90;;;;;;5019493;28;20018;-89
2024/03/12 09:34:52;;;;;;;15.85;6.65;;;8.50;99.90;;;;;;5019308;28;21650;-90
2024/03/12 09:37:18;;;;;;;13.52;7.35;;;8.40;99.90;;;;;;5022990;28;20120;-89
2024/03/12 09:39:44;;;;;;;11.65;6.43;;;8.40;99.90;;;;;;5022577;28;20032;-92
2024/03/12 09:42:14;;;;;;;13.70;7.20;;;8.40;99.90;;;;;;5019251;28;20025;-90
2024/03/12 09:44:41;;;;;;;13.23;7.10;;;8.40;99.90;;;;;;5022193;28;20029;-91
2024/03/12 09:47:08;;;;;;;15.38;8.25;;;8.40;99.90;;;;;;5022036;28;20025;-92
2024/03/12 09:49:35;;;;;;;19.30;9.95;;;8.40;99.90;;;;;;5020023;28;20080;-89
2024/03/12 09:52:06;;;;;;;19.00;9.02;;;8.30;99.90;;;;;;5018412;28;20034;-93
2024/03/12 09:54:35;;;;;;;17.27;8.38;;;8.30;99.90;;;;;;5022756;28;20488;-90
2024/03/12 09:57:03;;;;;;;16.27;9.40;;;8.40;99.90;;;;;;5023225;28;20057;-87
2024/03/12 09:59:30;;;;;;;;;;;8.30;99.90;;;;;;5023311;28;20613;-91
2024/03/12 10:01:56;;;;;;;18.13;7.78;;;8.30;99.90;;;;;;5023541;28;19981;-88
2024/03/12 10:04:23;;;;;;;17.20;7.93;;;8.30;99.90;;;;;;5027130;28;20542;-90
2024/03/12 10:06:49;;;;;;;15.00;8.23;;;8.20;99.90;;;;;;5024152;28;20036;-90
2024/03/12 10:09:18;;;;;;;14.48;7.53;;;8.20;99.90;;;;;;5025598;28;20025;-90
2024/03/12 10:11:44;;;;;;;16.33;7.45;;;8.20;99.90;;;;;;5024842;28;20112;-92
2024/03/12 10:14:12;;;;;;;18.35;6.60;;;8.20;99.90;;;;;;5025708;28;20148;-91
2024/03/12 10:16:38;;;;;;;15.85;8.15;;;8.30;99.90;;;;;;5026857;28;20037;-90
2024/03/12 10:19:18;;;;;;;18.00;9.25;;;8.40;99.90;;;;;;5027934;28;20021;-91
2024/03/12 10:21:49;;;;;;;18.42;8.13;;;8.60;99.90;;;;;;5024720;28;20017;-90
2024/03/12 10:24:17;;;;;;;18.55;9.15;;;8.60;99.90;;;;;;5023844;28;20046;-92
2024/03/12 10:26:47;;;;;;;17.30;8.07;;;8.60;99.90;;;;;;5027690;28;20033;-91
2024/03/12 10:29:18;;;;;;;17.25;8.45;;;8.60;99.90;;;;;;5026906;28;20032;-91
2024/03/12 10:31:45;;;;;;;17.05;8.93;;;8.60;99.90;;;;;;5023906;28;20040;-91
2024/03/12 10:34:17;;;;;;;15.23;9.25;;;8.50;99.90;;;;;;5025780;28;20056;-90
2024/03/12 10:36:44;;;;;;;16.38;8.77;;;8.40;99.90;;;;;;5027247;28;20034;-89
2024/03/12 10:39:25;;;;;;;18.50;9.85;;;8.40;99.90;;;;;;5025657;28;20312;-89
2024/03/12 10:41:55;;;;;;;19.42;9.13;;;8.50;99.90;;;;;;5023068;28;20504;-89
2024/03/12 10:44:21;;;;;;;21.17;9.40;;;8.50;99.90;;;;;;5022362;28;21056;-90
2024/03/12 10:46:48;;;;;;;19.67;11.43;;;8.50;99.90;;;;;;5026230;28;20109;-88
2024/03/12 10:49:17;;;;;;;16.83;8.70;;;8.60;99.90;;;;;;5025168;28;20021;-90
2024/03/12 10:51:44;;;;;;;23.00;10.93;;;8.50;99.90;;;;;;5020421;28;20041;-87
2024/03/12 10:54:13;;;;;;;22.98;11.27;;;8.60;99.90;;;;;;5025608;28;20057;-88
2024/03/12 10:56:41;;;;;;;24.35;10.55;;;8.60;99.90;;;;;;5027301;28;20620;-91
2024/03/12 10:59:10;;;;;;;21.52;9.25;;;8.60;99.90;;;;;;5024557;28;20026;-89
2024/03/12 11:01:36;;;;;;;26.38;9.95;;;8.60;99.90;;;;;;5023197;28;20026;-87
2024/03/12 11:04:03;;;;;;;22.52;10.90;;;8.70;99.90;;;;;;5057867;28;20098;-90
2024/03/12 11:06:30;;;;;;;24.52;10.93;;;8.70;99.90;;;;;;5022819;28;20030;-89
2024/03/12 11:08:58;;;;;;;29.20;11.32;;;8.60;99.90;;;;;;5023197;28;20052;-91
2024/03/12 11:11:23;;;;;;;22.63;10.75;;;8.70;99.90;;;;;;5024999;28;20021;-88
2024/03/12 11:13:50;;;;;;;24.73;12.23;;;8.70;99.90;;;;;;5027010;28;20094;-90
2024/03/12 11:16:19;;;;;;;32.83;12.57;;;8.70;99.90;;;;;;5025701;28;20032;-89
2024/03/12 11:18:45;;;;;;;27.13;12.60;;;8.70;99.90;;;;;;5026175;28;20487;-91
2024/03/12 11:21:13;;;;;;;26.77;12.55;;;8.80;99.90;;;;;;5022893;28;20082;-93
2024/03/12 11:23:40;;;;;;;28.45;12.77;;;8.80;99.90;;;;;;5037168;28;20077;-90
2024/03/12 11:26:10;;;;;;;35.47;13.30;;;8.90;99.90;;;;;;5042247;28;20097;-91
2024/03/12 11:28:50;;;;;;;28.63;13.57;;;9.00;99.90;;;;;;5040334;28;20041;-92
2024/03/12 11:31:18;;;;;;;32.65;14.90;;;9.00;99.90;;;;;;5039676;28;20036;-89
2024/03/12 11:33:54;;;;;;;41.92;16.50;;;9.00;99.90;;;;;;5040887;28;20013;-91
2024/03/12 11:36:32;;;;;;;38.42;14.65;;;8.90;99.90;;;;;;5041318;28;20517;-93
2024/03/12 11:39:11;;;;;;;28.67;13.07;;;8.90;99.90;;;;;;5040890;28;20087;-90
2024/03/12 11:42:15;;;;;;;34.92;13.98;;;8.90;99.90;;;;;;5027854;28;20112;-88
2024/03/12 11:45:00;;;;;;;36.22;15.75;;;9.10;99.90;;;;;;4945150;28;20037;-90
2024/03/12 11:47:42;;;;;;;32.00;12.23;;;9.10;99.90;;;;;;4943272;28;20046;-90
2024/03/12 11:50:30;;;;;;;34.13;14.38;;;9.20;99.90;;;;;;4998317;28;20701;-92
2024/03/12 11:53:14;;;;;;;39.15;16.15;;;9.30;99.90;;;;;;5025632;28;20109;-88
2024/03/12 11:56:10;;;;;;;39.45;17.60;;;9.30;99.90;;;;;;5024062;28;20082;-90
2024/03/12 11:58:52;;;;;;;36.13;14.13;;;9.40;99.90;;;;;;5025742;28;20052;-91
2024/03/12 12:01:24;;;;;;;42.33;17.85;;;9.50;99.90;;;;;;5028525;28;20029;-91
2024/03/12 12:04:07;;;;;;;44.30;17.05;;;9.40;99.90;;;;;;5026405;28;20025;-89
2024/03/12 12:06:39;;;;;;;41.95;16.98;;;9.60;99.40;;;;;;5029853;28;20029;-91
2024/03/12 12:09:10;;;;;;;43.83;19.30;;;9.70;98.60;;;;;;5029117;28;20029;-91
2024/03/12 12:11:37;;;;;;;58.33;17.95;;;9.80;98.40;;;;;;5023719;28;20661;-93
2024/03/12 12:14:08;;;;;;;45.67;17.40;;;9.80;97.50;;;;;;5026511;28;20045;-90
2024/03/12 12:16:35;;;;;;;45.00;19.17;;;9.80;97.20;;;;;;5030072;28;20013;-90
2024/03/12 12:19:09;;;;;;;47.53;18.80;;;9.80;97.70;;;;;;5027421;28;20039;-90
2024/03/12 12:21:35;;;;;;;44.72;19.33;;;9.60;98.40;;;;;;5026806;28;20025;-92
2024/03/12 12:24:01;;;;;;;46.63;19.67;;;9.50;98.70;;;;;;5032323;28;20043;-90
2024/03/12 12:26:27;;;;;;;54.47;19.83;;;9.60;98.50;;;;;;5050179;28;20116;-89
2024/03/12 12:28:54;;;;;;;49.13;19.48;;;9.60;98.80;;;;;;5025807;28;20116;-91
2024/03/12 12:31:27;;;;;;;45.67;18.73;;;9.60;99.60;;;;;;5028423;28;20072;-90
2024/03/12 12:33:55;;;;;;;55.22;19.85;;;9.60;98.60;;;;;;5027247;28;20021;-90
2024/03/12 12:36:28;;;;;;;50.28;18.15;;;9.60;98.40;;;;;;5030302;28;20029;-92
2024/03/12 12:38:55;;;;;;;49.13;19.90;;;9.70;99.30;;;;;;5029421;28;20030;-91
2024/03/12 12:41:24;;;;;;;60.97;21.13;;;9.60;97.90;;;;;;5029114;28;20030;-89
2024/03/12 12:43:53;;;;;;;48.40;18.38;;;9.60;98.40;;;;;;5027107;28;20021;-92
2024/03/12 12:46:28;;;;;;;48.20;19.38;;;9.60;97.80;;;;;;5028160;28;20078;-90
2024/03/12 12:48:54;;;;;;;53.30;19.08;;;9.60;99.20;;;;;;5026609;28;20075;-91
2024/03/12 12:51:24;;;;;;;51.38;20.67;;;9.60;95.90;;;;;;5024883;28;20037;-90
2024/03/12 12:53:52;;;;;;;54.42;21.88;;;9.70;93.80;;;;;;5025961;28;20025;-90
2024/03/12 12:56:21;;;;;;;53.47;22.05;;;9.70;91.40;;;;;;5025917;28;20034;-89
2024/03/12 12:58:48;;;;;;;47.92;18.63;;;9.70;88.60;;;;;;5028050;28;20566;-91
2024/03/12 13:01:15;;;;;;;52.38;20.75;;;9.70;86.10;;;;;;5023493;28;20064;-90
2024/03/12 13:03:43;;;;;;;49.00;19.67;;;9.60;86.80;;;;;;5024330;28;20133;-90
2024/03/12 13:06:16;;;;;;;48.22;19.70;;;9.70;88.20;;;;;;5026024;28;20491;-90